Time;durP1;ratioP1;P1;durP2;ratioP2;P2;SDS_P1;SDS_P2;PMS_P1;PMS_P2;Temp;Humidity;BMP_temperature;BMP_pressure;BME280_temperature;BME280_humidity;BME280_pressure;Samples;Min_cycle;Max_cycle;Signal;HPM_P1;HPM_P2
2022/10/17 00:00:16;;;;;;;7.78;3.47;;;13.50;74.20;;;;;;5132805;28;20042;-71
2022/10/17 00:02:41;;;;;;;5.40;3.22;;;13.40;74.30;;;;;;5115456;28;20050;-71
2022/10/17 00:05:07;;;;;;;7.60;3.05;;;13.40;74.50;;;;;;5132091;27;20035;-71
2022/10/17 00:07:33;;;;;;;12.70;3.97;;;13.40;74.60;;;;;;5132275;28;20039;-71
2022/10/17 00:09:58;;;;;;;7.43;3.28;;;13.40;74.70;;;;;;5132136;28;20498;-72
2022/10/17 00:12:24;;;;;;;7.38;3.45;;;13.40;74.80;;;;;;5115330;28;20492;-72
2022/10/17 00:14:50;;;;;;;8.43;2.95;;;13.40;75.00;;;;;;5114486;28;20031;-72
2022/10/17 00:17:16;;;;;;;6.75;3.25;;;13.40;75.10;;;;;;5132627;28;20046;-72
2022/10/17 00:19:41;;;;;;;6.80;2.63;;;13.40;75.20;;;;;;5114952;28;20082;-71
2022/10/17 00:22:07;;;;;;;5.05;2.63;;;13.40;75.30;;;;;;5132628;28;20039;-71
2022/10/17 00:24:32;;;;;;;5.53;2.78;;;13.40;75.30;;;;;;5133164;27;20402;-72
2022/10/17 00:26:58;;;;;;;7.47;4.10;;;13.40;75.40;;;;;;5135669;27;20179;-72
2022/10/17 00:29:24;;;;;;;7.75;3.22;;;13.40;75.40;;;;;;5135801;27;20039;-72
2022/10/17 00:31:53;;;;;;;9.90;3.95;;;13.40;75.50;;;;;;5136234;27;20646;-72
2022/10/17 00:34:19;;;;;;;7.32;4.15;;;13.40;75.70;;;;;;5136365;27;20111;-72
2022/10/17 00:36:45;;;;;;;9.30;3.83;;;13.40;75.80;;;;;;5118984;27;20466;-72
2022/10/17 00:39:10;;;;;;;7.88;3.95;;;13.40;75.80;;;;;;5118139;27;20027;-72
2022/10/17 00:41:36;;;;;;;8.70;3.53;;;13.40;76.00;;;;;;5135802;27;20043;-72
2022/10/17 00:44:26;;;;;;;8.77;4.20;;;13.40;76.10;;;;;;5118629;27;20035;-72
2022/10/17 00:46:52;;;;;;;10.93;4.50;;;13.40;76.30;;;;;;5135632;27;20074;-72
2022/10/17 00:49:19;;;;;;;10.07;4.15;;;13.40;76.30;;;;;;5118401;27;20087;-72
2022/10/17 00:51:49;;;;;;;10.00;4.97;;;13.40;76.50;;;;;;5135711;27;20042;-72
2022/10/17 00:54:17;;;;;;;12.27;5.55;;;13.40;76.70;;;;;;5135179;27;20050;-72
2022/10/17 00:56:46;;;;;;;8.35;4.63;;;13.40;76.90;;;;;;5135588;27;20054;-72
2022/10/17 00:59:13;;;;;;;8.30;4.93;;;13.40;77.10;;;;;;5135178;27;20039;-72
2022/10/17 01:01:40;;;;;;;8.35;5.07;;;13.40;77.30;;;;;;5135800;27;20038;-72
2022/10/17 01:04:06;;;;;;;11.25;5.53;;;13.40;77.40;;;;;;5117979;27;20115;-72
2022/10/17 01:06:32;;;;;;;8.88;5.57;;;13.40;77.50;;;;;;5135396;27;20129;-72
2022/10/17 01:08:57;;;;;;;8.68;5.32;;;13.40;77.60;;;;;;5135026;27;20051;-72
2022/10/17 01:11:49;;;;;;;8.20;4.20;;;13.40;77.70;;;;;;5118265;27;20096;-72
2022/10/17 01:14:24;;;;;;;11.13;5.30;;;13.40;77.80;;;;;;5135366;27;20123;-72
2022/10/17 01:17:06;;;;;;;7.90;4.70;;;13.40;77.80;;;;;;5135221;27;20038;-72
2022/10/17 01:19:43;;;;;;;6.03;4.68;;;13.50;77.90;;;;;;5135000;27;20031;-72
2022/10/17 01:22:30;;;;;;;11.45;4.72;;;13.50;77.80;;;;;;5151471;27;20039;-72
2022/10/17 01:25:13;;;;;;;11.25;6.13;;;13.50;77.80;;;;;;5134647;27;20039;-72
2022/10/17 01:27:51;;;;;;;12.70;6.32;;;13.50;77.90;;;;;;5135276;27;20043;-72
2022/10/17 01:30:28;;;;;;;10.10;6.75;;;13.50;78.00;;;;;;5134599;27;20047;-72
2022/10/17 01:33:10;;;;;;;9.77;6.30;;;13.50;78.10;;;;;;5118205;27;20039;-72
2022/10/17 01:35:52;;;;;;;11.38;6.38;;;13.50;78.20;;;;;;5134429;27;20076;-72
2022/10/17 01:38:23;;;;;;;12.07;6.40;;;13.50;78.20;;;;;;5134614;27;20043;-72
2022/10/17 01:41:06;;;;;;;9.13;6.40;;;13.50;78.30;;;;;;5134553;27;20487;-72
2022/10/17 01:43:50;;;;;;;12.52;6.68;;;13.50;78.40;;;;;;5134790;27;20035;-72
2022/10/17 01:46:24;;;;;;;11.20;6.70;;;13.50;78.40;;;;;;5148774;27;20516;-72
2022/10/17 01:48:51;;;;;;;11.13;7.28;;;13.50;78.40;;;;;;5134853;27;20047;-72
2022/10/17 01:51:54;;;;;;;11.63;7.15;;;13.50;78.50;;;;;;5150286;27;20053;-72
2022/10/17 01:54:43;;;;;;;13.18;7.72;;;13.50;78.50;;;;;;5133011;27;20088;-71
2022/10/17 01:57:17;;;;;;;12.63;8.73;;;13.50;78.60;;;;;;5134506;27;20100;-71
2022/10/17 01:59:47;;;;;;;13.35;10.35;;;13.50;78.70;;;;;;5134248;27;20031;-71
2022/10/17 02:02:15;;;;;;;13.00;10.02;;;13.50;78.70;;;;;;5134630;27;20078;-72
2022/10/17 02:04:42;;;;;;;14.65;11.07;;;13.50;78.80;;;;;;5134137;27;20504;-71
2022/10/17 02:07:12;;;;;;;13.52;11.25;;;13.50;78.90;;;;;;5134572;27;20118;-71
2022/10/17 02:09:38;;;;;;;19.25;12.70;;;13.50;79.40;;;;;;5134160;27;20031;-71
2022/10/17 02:12:25;;;;;;;20.25;13.65;;;13.50;79.40;;;;;;5116937;27;20039;-71
2022/10/17 02:15:04;;;;;;;19.33;13.75;;;13.50;79.10;;;;;;5116311;27;20074;-71
2022/10/17 02:17:42;;;;;;;18.73;13.63;;;13.50;79.10;;;;;;5151565;27;20054;-71
2022/10/17 02:20:33;;;;;;;17.75;14.15;;;13.50;79.10;;;;;;5140404;27;20055;-71
2022/10/17 02:23:12;;;;;;;17.67;14.02;;;13.50;79.10;;;;;;5089915;28;20587;-72
2022/10/17 02:25:49;;;;;;;18.48;14.43;;;13.50;79.10;;;;;;5128225;27;20031;-71
2022/10/17 02:28:27;;;;;;;19.35;15.43;;;13.50;79.20;;;;;;5133811;27;20494;-72
2022/10/17 02:30:52;;;;;;;20.30;16.10;;;13.50;79.10;;;;;;5133700;27;20043;-72
2022/10/17 02:33:51;;;;;;;21.60;15.52;;;13.50;79.20;;;;;;5116958;27;20134;-72
2022/10/17 02:36:33;;;;;;;19.05;14.88;;;13.50;79.30;;;;;;5133310;27;20031;-71
2022/10/17 02:39:01;;;;;;;19.35;15.75;;;13.50;79.40;;;;;;5134105;27;20364;-72
2022/10/17 02:41:30;;;;;;;21.35;16.30;;;13.50;79.40;;;;;;5133089;27;20042;-72
2022/10/17 02:43:56;;;;;;;20.50;16.52;;;13.40;79.40;;;;;;5116525;27;20042;-72
2022/10/17 02:46:25;;;;;;;22.92;17.02;;;13.40;79.50;;;;;;5133391;27;20047;-71
2022/10/17 02:49:14;;;;;;;18.42;15.93;;;13.40;79.60;;;;;;5133051;27;20051;-72
2022/10/17 02:51:55;;;;;;;19.15;16.30;;;13.50;79.80;;;;;;5115635;27;20058;-71
2022/10/17 02:54:47;;;;;;;19.88;15.95;;;13.50;80.00;;;;;;5115947;27;20062;-71
2022/10/17 02:57:28;;;;;;;19.20;15.18;;;13.40;80.00;;;;;;5133022;27;20137;-71
2022/10/17 02:59:56;;;;;;;17.02;15.15;;;13.40;80.20;;;;;;5145764;27;20421;-71
2022/10/17 03:02:22;;;;;;;20.30;15.75;;;13.50;80.40;;;;;;5129571;27;20391;-71
2022/10/17 03:04:48;;;;;;;21.73;15.40;;;13.50;80.40;;;;;;5143797;27;20046;-72
2022/10/17 03:07:13;;;;;;;19.10;14.30;;;13.50;80.60;;;;;;5112739;28;20061;-72
2022/10/17 03:09:39;;;;;;;20.98;16.05;;;13.50;80.60;;;;;;5117243;27;20062;-72
2022/10/17 03:12:05;;;;;;;20.55;14.43;;;13.50;80.70;;;;;;5133047;27;20490;-71
2022/10/17 03:14:31;;;;;;;16.42;13.52;;;13.50;80.80;;;;;;5115650;27;20070;-71
2022/10/17 03:16:56;;;;;;;16.23;13.60;;;13.50;80.90;;;;;;5132804;27;20027;-71
2022/10/17 03:19:22;;;;;;;16.70;12.85;;;13.50;81.00;;;;;;5133028;27;20051;-71
2022/10/17 03:21:47;;;;;;;18.02;13.40;;;13.60;81.20;;;;;;5112679;28;20047;-71
2022/10/17 03:24:13;;;;;;;18.70;14.02;;;13.60;81.30;;;;;;5096502;27;20568;-72
2022/10/17 03:26:39;;;;;;;15.10;13.32;;;13.60;81.40;;;;;;5132826;27;20086;-71
2022/10/17 03:29:04;;;;;;;17.02;13.50;;;13.60;81.50;;;;;;5150301;27;20123;-71
2022/10/17 03:31:30;;;;;;;17.17;13.80;;;13.60;81.60;;;;;;5132716;27;20501;-71
2022/10/17 03:33:57;;;;;;;16.90;13.60;;;13.70;81.90;;;;;;5132970;27;20063;-71
2022/10/17 03:36:22;;;;;;;16.80;13.50;;;13.70;81.90;;;;;;5141942;27;20035;-72
2022/10/17 03:38:52;;;;;;;15.38;13.32;;;13.70;82.10;;;;;;5112389;28;20565;-71
2022/10/17 03:41:17;;;;;;;17.75;13.88;;;13.70;82.20;;;;;;5116997;27;20043;-72
2022/10/17 03:43:43;;;;;;;16.65;14.50;;;13.70;82.30;;;;;;5112344;28;20166;-71
2022/10/17 03:46:09;;;;;;;16.95;14.30;;;13.80;82.40;;;;;;5129066;27;20137;-72
2022/10/17 03:48:34;;;;;;;17.23;15.13;;;13.80;82.50;;;;;;5132054;27;20067;-72
2022/10/17 03:51:02;;;;;;;16.48;14.48;;;13.90;82.60;;;;;;5143623;27;20043;-72
2022/10/17 03:53:28;;;;;;;16.63;14.70;;;13.90;82.60;;;;;;5132827;27;20043;-71
2022/10/17 03:55:54;;;;;;;19.00;14.82;;;13.90;82.70;;;;;;5143293;27;20546;-71
2022/10/17 03:58:19;;;;;;;18.70;14.85;;;13.90;82.70;;;;;;5132437;27;20088;-72
2022/10/17 04:00:45;;;;;;;18.17;14.70;;;13.90;82.70;;;;;;5147643;27;20058;-72
2022/10/17 04:03:11;;;;;;;18.35;14.50;;;13.90;82.70;;;;;;5105135;27;20042;-72
2022/10/17 04:05:36;;;;;;;19.00;15.32;;;14.00;82.80;;;;;;5122167;27;20047;-72
2022/10/17 04:08:02;;;;;;;19.40;16.08;;;14.00;82.90;;;;;;5139050;27;20071;-71
2022/10/17 04:10:28;;;;;;;17.38;14.90;;;14.00;82.90;;;;;;5138863;27;20115;-72
2022/10/17 04:12:54;;;;;;;17.85;15.95;;;14.00;82.90;;;;;;5139336;27;20043;-72
2022/10/17 04:15:20;;;;;;;16.75;14.77;;;14.00;83.00;;;;;;5147009;27;20043;-72
2022/10/17 04:17:45;;;;;;;19.10;15.02;;;14.10;83.10;;;;;;5101997;27;20028;-72
2022/10/17 04:20:11;;;;;;;19.58;15.40;;;14.10;83.50;;;;;;5121945;27;20039;-72
2022/10/17 04:22:37;;;;;;;17.15;14.55;;;14.10;83.10;;;;;;5138813;27;20042;-72
2022/10/17 04:25:03;;;;;;;17.55;15.40;;;14.10;83.10;;;;;;5149563;27;20031;-73
2022/10/17 04:27:28;;;;;;;17.90;15.68;;;14.10;83.50;;;;;;5136470;27;20391;-72
2022/10/17 04:29:54;;;;;;;16.98;15.27;;;14.10;83.20;;;;;;5146796;27;20069;-72
2022/10/17 04:32:20;;;;;;;18.15;15.68;;;14.20;83.20;;;;;;5133159;27;20039;-72
2022/10/17 04:34:49;;;;;;;18.67;16.10;;;14.20;83.30;;;;;;5135124;27;20043;-72
2022/10/17 04:37:15;;;;;;;17.33;15.50;;;14.20;83.40;;;;;;5117751;27;20474;-72
2022/10/17 04:39:41;;;;;;;16.95;15.23;;;14.30;83.40;;;;;;5121623;27;20041;-72
2022/10/17 04:42:06;;;;;;;19.92;15.88;;;14.30;83.40;;;;;;5138450;27;20130;-72
2022/10/17 04:44:34;;;;;;;18.17;15.70;;;14.30;83.50;;;;;;5121516;27;20034;-73
2022/10/17 04:47:00;;;;;;;17.45;15.52;;;14.30;83.50;;;;;;5138814;27;20100;-73
2022/10/17 04:49:25;;;;;;;18.83;15.95;;;14.30;83.60;;;;;;5138907;27;20067;-72
2022/10/17 04:51:51;;;;;;;18.58;15.65;;;14.40;83.70;;;;;;5121727;27;20092;-71
2022/10/17 04:54:17;;;;;;;22.13;16.38;;;14.40;83.80;;;;;;5138410;27;20042;-72
2022/10/17 04:56:43;;;;;;;17.45;15.63;;;14.40;83.80;;;;;;5141270;27;20042;-72
2022/10/17 04:59:08;;;;;;;17.83;15.55;;;14.50;83.90;;;;;;5121457;27;20043;-72
2022/10/17 05:01:34;;;;;;;16.38;14.55;;;14.50;83.90;;;;;;5121645;27;20046;-72
2022/10/17 05:03:59;;;;;;;19.20;15.98;;;14.50;83.90;;;;;;5156290;27;20039;-72
2022/10/17 05:06:30;;;;;;;18.17;15.02;;;14.50;83.90;;;;;;5140312;27;20399;-72
2022/10/17 05:08:57;;;;;;;17.50;15.13;;;14.50;83.90;;;;;;5121400;27;20108;-72
2022/10/17 05:11:24;;;;;;;17.80;15.13;;;14.60;84.00;;;;;;5135766;27;20054;-72
2022/10/17 05:13:51;;;;;;;17.83;15.20;;;14.60;84.00;;;;;;5115290;28;20062;-72
2022/10/17 05:16:18;;;;;;;20.33;16.58;;;14.60;84.00;;;;;;5131072;27;20039;-72
2022/10/17 05:18:43;;;;;;;17.85;15.70;;;14.60;84.00;;;;;;5117860;27;20121;-72
2022/10/17 05:21:09;;;;;;;16.92;15.23;;;14.70;84.00;;;;;;5135395;27;20124;-72
2022/10/17 05:23:35;;;;;;;17.30;15.48;;;14.70;84.10;;;;;;5134988;27;20111;-71
2022/10/17 05:26:01;;;;;;;18.77;16.00;;;14.70;84.00;;;;;;5135395;27;20045;-72
2022/10/17 05:28:27;;;;;;;17.23;15.43;;;14.70;84.00;;;;;;5134670;27;20055;-73
2022/10/17 05:30:52;;;;;;;16.75;14.35;;;14.70;84.10;;;;;;5133464;27;20383;-73
2022/10/17 05:33:18;;;;;;;17.92;15.35;;;14.70;84.00;;;;;;5132813;27;20489;-73
2022/10/17 05:35:44;;;;;;;19.10;14.88;;;14.70;84.00;;;;;;5108716;27;20039;-73
2022/10/17 05:38:09;;;;;;;17.17;14.80;;;14.70;84.00;;;;;;5135174;27;20046;-73
2022/10/17 05:40:37;;;;;;;20.02;15.30;;;14.80;84.10;;;;;;5117804;27;20039;-72
2022/10/17 05:43:03;;;;;;;20.20;15.38;;;14.80;84.10;;;;;;5135130;27;20043;-72
2022/10/17 05:45:28;;;;;;;21.90;16.08;;;14.70;84.10;;;;;;5117607;27;20043;-73
2022/10/17 05:47:54;;;;;;;17.05;14.73;;;14.70;84.10;;;;;;5145230;27;20123;-72
2022/10/17 05:50:20;;;;;;;22.88;15.40;;;14.80;84.20;;;;;;5115453;27;20044;-72
2022/10/17 05:52:46;;;;;;;19.23;15.23;;;14.80;84.20;;;;;;5135041;27;20031;-73
2022/10/17 05:55:12;;;;;;;18.13;15.02;;;14.80;84.30;;;;;;5134266;27;20497;-72
2022/10/17 05:57:38;;;;;;;20.20;15.07;;;14.80;84.30;;;;;;5147662;27;20047;-73
2022/10/17 06:00:04;;;;;;;19.20;15.38;;;14.80;84.30;;;;;;5114383;28;20039;-72
2022/10/17 06:02:30;;;;;;;18.52;14.38;;;14.80;84.40;;;;;;5116618;27;20161;-73
2022/10/17 06:04:56;;;;;;;17.00;13.85;;;14.90;84.40;;;;;;5134338;27;20390;-73
2022/10/17 06:07:21;;;;;;;19.08;14.30;;;14.90;84.50;;;;;;5134273;27;20023;-73
2022/10/17 06:09:47;;;;;;;19.10;14.50;;;14.90;84.50;;;;;;5117415;27;20456;-72
2022/10/17 06:12:13;;;;;;;17.83;13.63;;;14.90;84.50;;;;;;5134494;27;20043;-72
2022/10/17 06:14:38;;;;;;;17.42;14.48;;;15.00;84.60;;;;;;5116904;27;20127;-72
2022/10/17 06:17:04;;;;;;;15.63;13.00;;;15.00;84.70;;;;;;5134264;27;20075;-72
2022/10/17 06:19:30;;;;;;;16.35;14.52;;;15.00;84.70;;;;;;5133604;27;20035;-72
2022/10/17 06:21:55;;;;;;;18.30;13.88;;;15.10;84.90;;;;;;5134241;27;20486;-72
2022/10/17 06:24:21;;;;;;;14.70;13.07;;;15.10;84.90;;;;;;5134098;27;20043;-72
2022/10/17 06:26:48;;;;;;;14.63;12.57;;;15.20;85.40;;;;;;5102589;27;20043;-72
2022/10/17 06:29:14;;;;;;;17.88;13.00;;;15.20;85.10;;;;;;5133884;27;20047;-72
2022/10/17 06:31:40;;;;;;;15.77;11.40;;;15.20;85.10;;;;;;5133770;27;20452;-72
2022/10/17 06:34:06;;;;;;;14.02;12.27;;;15.30;85.10;;;;;;5116516;27;20043;-72
2022/10/17 06:36:31;;;;;;;14.30;12.38;;;15.30;85.20;;;;;;5134351;27;20044;-72
2022/10/17 06:38:57;;;;;;;13.65;11.57;;;15.40;85.20;;;;;;5123109;27;20047;-72
2022/10/17 06:41:23;;;;;;;14.82;12.10;;;15.40;85.20;;;;;;5150647;27;20035;-72
2022/10/17 06:43:49;;;;;;;14.88;11.48;;;15.40;85.20;;;;;;5133849;27;20122;-72
2022/10/17 06:46:17;;;;;;;14.63;11.77;;;15.50;85.20;;;;;;5116511;27;20125;-72
2022/10/17 06:48:42;;;;;;;16.83;11.35;;;15.50;85.20;;;;;;5116082;27;20034;-72
2022/10/17 06:51:10;;;;;;;13.73;12.23;;;15.60;85.20;;;;;;5116389;27;20427;-72
2022/10/17 06:53:36;;;;;;;12.43;11.10;;;15.60;85.10;;;;;;5133437;27;20041;-72
2022/10/17 06:56:03;;;;;;;15.30;11.43;;;15.60;85.10;;;;;;5124669;27;20474;-72
2022/10/17 06:58:31;;;;;;;12.63;11.25;;;15.70;85.20;;;;;;5133069;27;20082;-72
2022/10/17 07:01:05;;;;;;;14.95;10.93;;;15.70;85.30;;;;;;5116362;27;20039;-72
2022/10/17 07:03:31;;;;;;;;;;;15.70;85.20;;;;;;5133811;27;20039;-72
2022/10/17 07:05:57;;;;;;;14.38;10.35;;;15.70;84.80;;;;;;5132544;27;20255;-72
2022/10/17 07:08:24;;;;;;;11.77;10.13;;;15.70;85.00;;;;;;5115969;27;20039;-72
2022/10/17 07:10:50;;;;;;;15.77;11.65;;;15.80;85.10;;;;;;5133571;27;20050;-72
2022/10/17 07:13:17;;;;;;;11.35;10.13;;;15.80;85.40;;;;;;5116178;27;20047;-72
2022/10/17 07:15:43;;;;;;;11.95;10.35;;;15.80;85.30;;;;;;5115687;27;20031;-72
2022/10/17 07:18:09;;;;;;;11.43;9.75;;;15.90;85.00;;;;;;5133231;27;20493;-72
2022/10/17 07:20:35;;;;;;;13.50;9.90;;;15.90;84.80;;;;;;5132831;27;20039;-73
2022/10/17 07:23:01;;;;;;;12.32;9.85;;;16.00;84.80;;;;;;5133005;27;20039;-73
2022/10/17 07:25:27;;;;;;;12.27;9.98;;;16.00;84.80;;;;;;5132602;27;20039;-72
2022/10/17 07:27:53;;;;;;;12.25;9.90;;;16.00;84.70;;;;;;5139241;27;20054;-73
2022/10/17 07:30:19;;;;;;;12.95;9.07;;;16.00;84.70;;;;;;5127604;27;20043;-73
2022/10/17 07:32:45;;;;;;;15.18;10.35;;;16.10;84.70;;;;;;5133212;27;20466;-73
2022/10/17 07:35:11;;;;;;;11.18;9.25;;;16.10;84.70;;;;;;5097680;27;20363;-73
2022/10/17 07:37:37;;;;;;;14.23;10.40;;;16.20;84.60;;;;;;5132824;27;20039;-73
2022/10/17 07:40:06;;;;;;;10.80;9.27;;;16.20;84.60;;;;;;5115259;27;20104;-73
2022/10/17 07:42:34;;;;;;;14.77;9.60;;;16.20;84.50;;;;;;5132814;27;20573;-72
2022/10/17 07:45:00;;;;;;;11.48;9.30;;;16.30;84.50;;;;;;5132318;27;20039;-72
2022/10/17 07:47:26;;;;;;;9.82;8.88;;;16.30;84.40;;;;;;5133080;27;20038;-72
2022/10/17 07:49:51;;;;;;;13.13;9.68;;;16.40;84.40;;;;;;5115016;28;20497;-72
2022/10/17 07:52:17;;;;;;;12.18;9.07;;;16.40;84.30;;;;;;5132840;27;20039;-72
2022/10/17 07:54:43;;;;;;;11.20;9.18;;;16.50;84.40;;;;;;5132306;27;20043;-72
2022/10/17 07:57:09;;;;;;;13.35;9.45;;;16.50;84.30;;;;;;5131138;27;20039;-72
2022/10/17 07:59:37;;;;;;;13.32;9.15;;;16.50;84.30;;;;;;5132537;27;20379;-72
2022/10/17 08:02:03;;;;;;;14.48;9.65;;;16.60;84.30;;;;;;5132426;28;20038;-72
2022/10/17 08:04:29;;;;;;;11.48;9.20;;;16.60;84.20;;;;;;5098226;28;20502;-72
2022/10/17 08:06:55;;;;;;;12.75;8.95;;;16.70;84.10;;;;;;5132233;27;20043;-73
2022/10/17 08:09:20;;;;;;;14.52;9.05;;;16.70;84.00;;;;;;5132193;28;20398;-73
2022/10/17 08:11:46;;;;;;;9.77;8.68;;;16.80;83.90;;;;;;5124329;28;20028;-73
2022/10/17 08:14:13;;;;;;;12.85;8.57;;;16.80;83.80;;;;;;5129285;28;20032;-73
2022/10/17 08:16:42;;;;;;;10.82;8.77;;;16.80;83.60;;;;;;5132171;28;20462;-73
2022/10/17 08:19:10;;;;;;;9.70;8.15;;;16.90;83.50;;;;;;5131553;27;20061;-73
2022/10/17 08:21:36;;;;;;;9.10;8.20;;;16.90;83.30;;;;;;5115054;28;20039;-73
2022/10/17 08:24:02;;;;;;;11.32;9.00;;;17.00;83.20;;;;;;5131956;28;20493;-71
2022/10/17 08:26:28;;;;;;;9.60;8.38;;;16.90;82.90;;;;;;5130835;27;20168;-72
2022/10/17 08:28:54;;;;;;;10.05;8.15;;;17.00;82.80;;;;;;5115118;28;20070;-72
2022/10/17 08:31:20;;;;;;;11.75;8.35;;;17.00;82.70;;;;;;5132039;27;20123;-72
2022/10/17 08:33:48;;;;;;;10.15;8.43;;;17.00;82.60;;;;;;5132396;27;20367;-73
2022/10/17 08:36:16;;;;;;;11.48;7.95;;;17.00;82.50;;;;;;5131455;28;20486;-72
2022/10/17 08:38:42;;;;;;;12.65;8.50;;;17.00;82.40;;;;;;5131962;28;20063;-72
2022/10/17 08:41:20;;;;;;;11.75;8.45;;;17.00;82.40;;;;;;5114792;28;20047;-72
2022/10/17 08:44:11;;;;;;;9.75;8.65;;;17.00;82.70;;;;;;5132173;28;20035;-72
2022/10/17 08:46:40;;;;;;;9.40;8.18;;;17.10;82.20;;;;;;5132953;27;20035;-72
2022/10/17 08:49:13;;;;;;;12.68;8.27;;;17.00;82.30;;;;;;5125360;27;20036;-72
2022/10/17 08:51:48;;;;;;;13.38;8.55;;;17.10;82.30;;;;;;5135845;27;20047;-72
2022/10/17 08:54:23;;;;;;;9.77;8.50;;;17.10;82.20;;;;;;5118943;27;20394;-74
2022/10/17 08:56:51;;;;;;;12.18;7.68;;;17.10;82.10;;;;;;5135549;27;20080;-73
2022/10/17 08:59:28;;;;;;;8.57;7.65;;;17.10;82.10;;;;;;5135436;27;20039;-72
2022/10/17 09:02:18;;;;;;;10.00;8.10;;;17.10;82.00;;;;;;5126424;27;20118;-73
2022/10/17 09:05:00;;;;;;;10.15;8.20;;;17.10;81.80;;;;;;5135295;27;20043;-72
2022/10/17 09:07:35;;;;;;;8.63;7.47;;;17.10;81.70;;;;;;5108607;27;20035;-73
2022/10/17 09:10:20;;;;;;;9.13;7.90;;;17.20;81.50;;;;;;5135460;27;20042;-73
2022/10/17 09:12:51;;;;;;;12.57;8.45;;;17.10;81.50;;;;;;5109235;27;20098;-71
2022/10/17 09:15:32;;;;;;;11.68;8.02;;;17.10;81.60;;;;;;5135343;27;20481;-71
2022/10/17 09:18:01;;;;;;;8.65;7.78;;;17.10;81.50;;;;;;5135466;27;20035;-71
2022/10/17 09:20:32;;;;;;;8.35;7.50;;;17.10;81.40;;;;;;5135444;27;20456;-71
2022/10/17 09:23:03;;;;;;;10.35;8.27;;;17.10;81.30;;;;;;5135152;27;20039;-70
2022/10/17 09:25:39;;;;;;;11.85;8.88;;;17.10;81.30;;;;;;5134943;27;20122;-71
2022/10/17 09:28:29;;;;;;;9.75;8.75;;;17.10;81.50;;;;;;5135502;27;20459;-71
2022/10/17 09:30:59;;;;;;;9.88;8.88;;;17.10;81.50;;;;;;5134793;27;20078;-70
2022/10/17 09:33:29;;;;;;;11.50;8.27;;;17.10;81.70;;;;;;5135370;27;20449;-70
2022/10/17 09:35:57;;;;;;;11.77;9.02;;;17.10;81.80;;;;;;5134344;27;20053;-70
2022/10/17 09:38:28;;;;;;;11.73;8.57;;;17.10;81.90;;;;;;5135137;27;20046;-70
2022/10/17 09:40:57;;;;;;;12.68;9.23;;;17.10;82.00;;;;;;5144643;27;20125;-70
2022/10/17 09:43:24;;;;;;;10.93;9.00;;;17.00;82.10;;;;;;5114736;28;20437;-70
2022/10/17 09:46:02;;;;;;;11.38;8.32;;;17.10;82.20;;;;;;5125437;27;20404;-71
2022/10/17 09:48:36;;;;;;;10.02;8.95;;;17.10;82.20;;;;;;5135000;27;20047;-70
2022/10/17 09:51:02;;;;;;;10.60;9.40;;;17.00;82.80;;;;;;5134715;27;20599;-69
2022/10/17 09:53:37;;;;;;;12.38;9.00;;;17.00;82.40;;;;;;5134808;27;20333;-70
2022/10/17 09:56:15;;;;;;;13.48;9.95;;;17.00;82.60;;;;;;5116981;27;20126;-69
2022/10/17 09:58:48;;;;;;;12.00;9.68;;;17.00;82.80;;;;;;5117044;27;20043;-70
2022/10/17 10:01:19;;;;;;;12.30;9.55;;;17.00;82.90;;;;;;5134260;27;20048;-71
2022/10/17 10:03:45;;;;;;;10.88;9.07;;;17.00;83.00;;;;;;5134469;27;20042;-70
2022/10/17 10:06:15;;;;;;;11.52;9.57;;;17.00;83.10;;;;;;5133869;27;20043;-71
2022/10/17 10:08:57;;;;;;;10.88;9.55;;;17.00;83.30;;;;;;5134034;27;20043;-71
2022/10/17 10:11:52;;;;;;;11.25;9.55;;;17.00;83.60;;;;;;5116697;27;20035;-71
2022/10/17 10:14:27;;;;;;;12.10;9.50;;;17.00;83.70;;;;;;5133525;27;20035;-71
2022/10/17 10:16:53;;;;;;;12.80;9.77;;;17.00;83.90;;;;;;5116613;27;20058;-70
2022/10/17 10:19:29;;;;;;;10.32;9.27;;;17.00;84.40;;;;;;5134358;27;20142;-71
2022/10/17 10:21:57;;;;;;;11.60;10.35;;;17.00;84.10;;;;;;5133815;27;20075;-71
2022/10/17 10:24:24;;;;;;;12.13;10.40;;;17.00;84.10;;;;;;5131014;27;20038;-72
2022/10/17 10:26:53;;;;;;;15.98;10.73;;;17.00;84.10;;;;;;5130539;27;20039;-72
2022/10/17 10:29:32;;;;;;;10.25;9.25;;;17.10;84.20;;;;;;5133697;27;20130;-72
2022/10/17 10:32:20;;;;;;;12.95;9.65;;;17.00;84.30;;;;;;5131750;27;20563;-72
2022/10/17 10:34:56;;;;;;;11.38;9.80;;;17.00;84.20;;;;;;5133213;27;20567;-72
2022/10/17 10:37:40;;;;;;;13.73;10.68;;;17.10;84.50;;;;;;5122964;27;20093;-72
2022/10/17 10:40:36;;;;;;;11.88;9.93;;;17.00;84.40;;;;;;5132913;27;20101;-72
2022/10/17 10:43:03;;;;;;;15.27;10.95;;;17.00;84.40;;;;;;5099126;27;20075;-72
2022/10/17 10:45:35;;;;;;;15.90;11.20;;;17.10;84.40;;;;;;5132908;27;20494;-73
2022/10/17 10:48:05;;;;;;;12.30;10.10;;;17.10;84.60;;;;;;5133090;27;20043;-74
2022/10/17 10:50:47;;;;;;;15.52;10.88;;;17.10;84.60;;;;;;5133634;27;20475;-73
2022/10/17 10:53:52;;;;;;;11.55;10.35;;;17.10;84.80;;;;;;5134519;27;20124;-73
2022/10/17 10:56:37;;;;;;;11.60;9.95;;;17.10;84.70;;;;;;5100661;27;20047;-73
2022/10/17 10:59:19;;;;;;;10.90;9.80;;;17.10;84.90;;;;;;5133504;27;20071;-73
2022/10/17 11:01:51;;;;;;;12.70;10.95;;;17.10;85.00;;;;;;5133993;27;20027;-73
2022/10/17 11:04:45;;;;;;;12.70;10.43;;;17.10;85.00;;;;;;5143781;27;20066;-73
2022/10/17 11:07:30;;;;;;;11.80;10.05;;;17.10;84.80;;;;;;5132450;27;20046;-73
2022/10/17 11:10:26;;;;;;;11.05;9.90;;;17.10;84.90;;;;;;5131091;27;20536;-73
2022/10/17 11:13:02;;;;;;;12.90;10.55;;;17.10;84.90;;;;;;5129295;27;20104;-73
2022/10/17 11:15:52;;;;;;;11.70;10.43;;;17.10;84.90;;;;;;5131973;27;20054;-73
2022/10/17 11:18:32;;;;;;;14.63;11.38;;;17.10;84.90;;;;;;5131436;27;20039;-73
2022/10/17 11:21:20;;;;;;;13.48;11.68;;;17.10;85.00;;;;;;5144350;27;20046;-73
2022/10/17 11:23:50;;;;;;;12.45;10.52;;;17.10;85.00;;;;;;5111133;27;20411;-73
2022/10/17 11:26:30;;;;;;;13.38;11.43;;;17.10;85.00;;;;;;5139031;27;20062;-73
2022/10/17 11:28:59;;;;;;;15.32;11.48;;;17.20;85.00;;;;;;5145058;27;20046;-73
2022/10/17 11:31:32;;;;;;;13.80;11.63;;;17.10;85.00;;;;;;5147650;27;20042;-73
2022/10/17 11:34:34;;;;;;;13.25;10.77;;;17.20;85.20;;;;;;5145229;27;20043;-72
2022/10/17 11:37:08;;;;;;;14.25;10.88;;;17.20;84.90;;;;;;5091813;27;20050;-74
2022/10/17 11:39:48;;;;;;;14.25;11.80;;;17.10;85.10;;;;;;5145649;27;20035;-74
2022/10/17 11:42:23;;;;;;;12.30;10.00;;;17.20;85.20;;;;;;5145072;27;20360;-74
2022/10/17 11:44:54;;;;;;;14.95;12.60;;;17.20;85.20;;;;;;5145738;27;20465;-74
2022/10/17 11:47:44;;;;;;;14.38;12.95;;;17.20;85.30;;;;;;5144670;27;20722;-74
2022/10/17 11:50:27;;;;;;;15.48;12.40;;;17.20;85.60;;;;;;5144180;27;20429;-74
2022/10/17 11:53:02;;;;;;;13.27;11.88;;;17.30;86.00;;;;;;5144021;27;20038;-74
2022/10/17 11:55:30;;;;;;;13.43;11.88;;;17.30;86.00;;;;;;5143903;27;20398;-73
2022/10/17 11:58:04;;;;;;;13.00;11.70;;;17.30;86.10;;;;;;5142191;27;20100;-74
2022/10/17 12:00:36;;;;;;;11.15;9.90;;;17.40;86.10;;;;;;5145250;27;20038;-73
2022/10/17 12:03:23;;;;;;;12.77;10.98;;;17.40;86.30;;;;;;5145888;27;20039;-74
2022/10/17 12:05:48;;;;;;;13.77;10.73;;;17.40;86.20;;;;;;5145966;27;20042;-74
2022/10/17 12:08:40;;;;;;;12.82;10.30;;;17.40;86.20;;;;;;5127221;27;20034;-74
2022/10/17 12:11:23;;;;;;;10.25;9.18;;;17.40;86.10;;;;;;5126228;27;20046;-74
2022/10/17 12:13:52;;;;;;;9.82;8.88;;;17.40;85.90;;;;;;5127098;27;20042;-73
2022/10/17 12:16:17;;;;;;;10.23;8.48;;;17.40;86.10;;;;;;5130160;28;20046;-73
2022/10/17 12:18:44;;;;;;;12.55;8.73;;;17.40;85.40;;;;;;5131086;28;20047;-73
2022/10/17 12:21:09;;;;;;;9.77;8.77;;;17.50;85.30;;;;;;5133135;27;20046;-73
2022/10/17 12:23:37;;;;;;;10.30;8.73;;;17.50;85.10;;;;;;5135000;27;20039;-73
2022/10/17 12:26:08;;;;;;;9.48;7.00;;;17.50;85.10;;;;;;5142357;27;20091;-73
2022/10/17 12:28:36;;;;;;;7.22;5.90;;;17.50;85.10;;;;;;5146248;27;20047;-73
2022/10/17 12:31:16;;;;;;;7.38;6.22;;;17.50;85.00;;;;;;5134268;27;20039;-73
2022/10/17 12:33:44;;;;;;;6.43;5.55;;;17.50;84.80;;;;;;5136091;27;20047;-73
2022/10/17 12:36:25;;;;;;;8.27;6.25;;;17.40;84.50;;;;;;5135982;27;20486;-73
2022/10/17 12:39:13;;;;;;;7.40;6.50;;;17.50;84.40;;;;;;5136338;27;20355;-73
2022/10/17 12:41:39;;;;;;;7.72;6.57;;;17.50;84.20;;;;;;5136213;27;20049;-73
2022/10/17 12:44:13;;;;;;;9.52;6.88;;;17.40;84.20;;;;;;5136021;27;20498;-73
2022/10/17 12:46:48;;;;;;;6.57;5.57;;;17.50;84.20;;;;;;5136111;27;20389;-73
2022/10/17 12:49:39;;;;;;;6.28;5.63;;;17.40;83.90;;;;;;5135802;27;20139;-72
2022/10/17 12:52:22;;;;;;;6.25;4.85;;;17.40;83.50;;;;;;5135994;27;20039;-72